Airfield :
LOGIN :

Register | Disclaimer

   EN    FR    IT 

 










Legend :    VFR   Marginal VFR   IFR   Intensive IFR   Very Intensive IFR
Visi :
Ceiling :
>= 8 km
>= 3000ft
5 to 8 km
1000 to 3000 ft
1500m to 5 km
500 to 1000 ft
800 to 1500m
200 to 500 ft
< 800m
< 200 ft
Symbols :   Thunderstorms  Fog  Heavy snow  Heavy precipitations  Wind > 20 kt
SIGMETs :     Misc.  Thunderstorms  Icing  Turbulence  Mountain Waves  Volcanic Ashes







- Airport Elevation : 1247 ft
- IATA code : PRG


LKPR - Praha Ruzyne

CURRENT METAR :
  • 221230Z 30012KT 7000 -RA FEW013 BKN016 OVC024 12/11 Q1013 BECMG BKN024

EXPIRED METARs :
  • 221215Z 30013KT 5000 -RA BR BKN009 BKN012 OVC017 12/10 Q1013 RMK REG QNH 1004
  • 221200Z 32014KT 4000 -RA BR SCT009 OVC017 12/10 Q1013 TEMPO BKN009
  • 221130Z 31015KT 9000 -RA OVC016 12/10 Q1013 NOSIG
  • 221100Z 31014KT 9999 -RA BKN017 13/09 Q1013 NOSIG
  • 221030Z 30016KT 9999 BKN018 13/09 Q1012 NOSIG
  • 221021Z 29015KT 9999 BKN018 13/09 Q1012 RMK REG QNH 1002
  • 221000Z 30017KT 9999 BKN021 13/10 Q1012 TEMPO BKN017

TAF TAF LKPR
Valid from the 22 at 12:00 until the 23 at 18:00 UTC


221100Z 2212/2318 29014KT 9999 BKN022
TEMPO 2212/2221 32016G30KT 6000 SHRA SCT014 BKN017TCU
BECMG 2300/2303 28010KT SCT045
TEMPO 2308/2316 34012G22KT
No reported NOTAMs for that airfield.



MET'MAP, your aeronautical weather chart ! - Copyright ORBIFLY December 2007 - Disclaimer

ORBIFLY MET'MAP TEAM :

Programming & Development : Alexandra Zaïnal
Concept & Development : Baudouin d'Aumeries
Co-Development & Prog : Marc-Olivier Méhu
Technical & hardware support : Manuel Goepfert

Contact : metmap@orbifly.com




SOURCES & CREDITS :

   NOAA